Airfield :
LOGIN :

Register | Disclaimer

   EN    FR    IT 

 










Legend :    VFR   Marginal VFR   IFR   Intensive IFR   Very Intensive IFR
Visi :
Ceiling :
>= 8 km
>= 3000ft
5 to 8 km
1000 to 3000 ft
1500m to 5 km
500 to 1000 ft
800 to 1500m
200 to 500 ft
< 800m
< 200 ft
Symbols :   Thunderstorms  Fog  Heavy snow  Heavy precipitations  Wind > 20 kt
SIGMETs :     Misc.  Thunderstorms  Icing  Turbulence  Mountain Waves  Volcanic Ashes






- Airport Elevation : 645 ft
- IATA code : DLE


LFGJ - Dole Tavaux

CURRENT METAR :
  • 162200Z AUTO 14001KT 9999 3500 NSC 17/15 Q1012

EXPIRED METARs :
  • 162130Z AUTO 15004KT CAVOK 17/15 Q1012
  • 162100Z AUTO 14004KT 9999 1300 R05/P2000 NSC 17/16 Q1012
  • 162030Z AUTO 15005KT 9999 4000 NSC 17/15 Q1012
  • 162000Z AUTO 14004KT 9999 2600 NSC 18/15 Q1012
  • 161930Z AUTO 21005KT CAVOK 19/16 Q1012
  • 161900Z AUTO 27003KT 210V360 9999 FEW045 SCT058 BKN070 20/16 Q1011
  • 161830Z AUTO 23003KT 9999 FEW039/// BKN048/// BKN056/// ///CB 21/16 Q1011
  • 161800Z AUTO 25005KT 9999 //////CB 22/14 Q1011
  • 161730Z AUTO 00000KT 9999 FEW046/// BKN078/// OVC100/// ///CB 21/14 Q1011

TAF TAF LFGJ
Valid from the 16 at 15:00 until the 17 at 00:00 UTC


161400Z 1615/1624 21008KT 9999 FEW050
TEMPO 1615/1619 -SHRA SCT050TCU
PROB30
TEMPO 1615/1616 3000 SHRA
PROB30
TEMPO 1619/1624 -SHRA FEW040TCU



MET'MAP, your aeronautical weather chart ! - Copyright ORBIFLY December 2007 - Disclaimer

ORBIFLY MET'MAP TEAM :

Programming & Development : Alexandra Zaïnal
Original concept : Baudouin d'Aumeries
Technical & hardware support : Manuel Goepfert
Assistance : Marc-Olivier Méhu




SOURCES & CREDITS :

   NOAA